Time;durP1;ratioP1;P1;durP2;ratioP2;P2;SDS_P1;SDS_P2;PMS_P1;PMS_P2;Temp;Humidity;BMP_temperature;BMP_pressure;BME280_temperature;BME280_humidity;BME280_pressure;Samples;Min_cycle;Max_cycle;Signal;HPM_P1;HPM_P2
2021/09/17 00:01:05;;;;;;;33.47;22.23;;;12.90;99.90;;;;;;4999605;28;20058;-75
2021/09/17 00:03:32;;;;;;;34.70;21.58;;;12.80;99.90;;;;;;4986012;28;20126;-76
2021/09/17 00:05:58;;;;;;;32.63;21.13;;;12.80;99.90;;;;;;4993453;28;20054;-75
2021/09/17 00:08:25;;;;;;;35.67;22.83;;;12.70;99.90;;;;;;4983021;28;20054;-76
2021/09/17 00:10:52;;;;;;;37.00;23.70;;;12.80;99.90;;;;;;4982350;28;20046;-76
2021/09/17 00:13:19;;;;;;;39.10;22.58;;;12.80;99.90;;;;;;4967959;28;20518;-75
2021/09/17 00:15:45;;;;;;;38.25;24.63;;;12.80;99.90;;;;;;4985704;28;20553;-76
2021/09/17 00:18:13;;;;;;;36.60;22.77;;;12.70;99.90;;;;;;4985920;28;20046;-76
2021/09/17 00:20:40;;;;;;;35.78;23.00;;;12.70;99.90;;;;;;4988061;28;20101;-76
2021/09/17 00:23:06;;;;;;;36.70;22.25;;;12.80;99.90;;;;;;5001120;28;20046;-76
2021/09/17 00:25:34;;;;;;;30.95;21.58;;;12.80;99.90;;;;;;4987777;28;20503;-76
2021/09/17 00:28:01;;;;;;;39.03;23.42;;;12.70;99.90;;;;;;4984602;28;20046;-76
2021/09/17 00:30:28;;;;;;;37.08;22.98;;;12.70;99.90;;;;;;4969351;28;20423;-76
2021/09/17 00:32:56;;;;;;;39.58;23.00;;;12.60;99.90;;;;;;4970639;28;20112;-76
2021/09/17 00:35:24;;;;;;;36.70;24.33;;;12.60;99.90;;;;;;4985975;28;20515;-76
2021/09/17 00:37:52;;;;;;;36.92;23.45;;;12.60;99.90;;;;;;4984574;28;20124;-76
2021/09/17 00:40:19;;;;;;;43.42;25.70;;;12.60;99.90;;;;;;4970247;28;20078;-76
2021/09/17 00:42:45;;;;;;;38.88;25.08;;;12.60;99.90;;;;;;4986349;28;20112;-76
2021/09/17 00:45:13;;;;;;;42.22;25.17;;;12.60;99.90;;;;;;4985916;28;20178;-76
2021/09/17 00:47:42;;;;;;;50.10;26.98;;;12.50;99.90;;;;;;4987321;28;20058;-76
2021/09/17 00:50:12;;;;;;;47.30;28.10;;;12.60;99.90;;;;;;4977726;28;20053;-76
2021/09/17 00:52:39;;;;;;;47.25;27.42;;;12.60;99.90;;;;;;4984012;28;20047;-75
2021/09/17 00:55:06;;;;;;;48.47;29.65;;;12.60;99.90;;;;;;4987704;28;20081;-76
2021/09/17 00:57:35;;;;;;;49.25;28.92;;;12.60;99.90;;;;;;4985629;28;20054;-76
2021/09/17 01:00:04;;;;;;;48.80;28.48;;;12.50;99.90;;;;;;4986313;28;20066;-76
2021/09/17 01:02:31;;;;;;;48.00;29.00;;;12.60;99.90;;;;;;4985878;28;20399;-76
2021/09/17 01:04:59;;;;;;;45.67;29.42;;;12.50;99.90;;;;;;4988258;28;20105;-76
2021/09/17 01:07:26;;;;;;;49.70;27.65;;;12.60;99.90;;;;;;4985519;28;20050;-76
2021/09/17 01:09:54;;;;;;;50.40;29.10;;;12.60;99.90;;;;;;4985239;28;20065;-76
2021/09/17 01:12:21;;;;;;;44.17;28.63;;;12.60;99.90;;;;;;4987326;28;20105;-76
2021/09/17 01:14:48;;;;;;;46.10;29.20;;;12.60;99.90;;;;;;4988150;28;20093;-76
2021/09/17 01:17:15;;;;;;;47.10;28.67;;;12.60;99.90;;;;;;4987962;28;20397;-75
2021/09/17 01:19:41;;;;;;;46.92;29.83;;;12.70;99.90;;;;;;4976917;28;20418;-76
2021/09/17 01:22:09;;;;;;;46.35;29.25;;;12.70;99.90;;;;;;5001500;28;20148;-76
2021/09/17 01:24:38;;;;;;;47.03;28.95;;;12.70;99.90;;;;;;4986521;28;20330;-76
2021/09/17 01:27:05;;;;;;;51.45;29.45;;;12.70;99.90;;;;;;4990703;28;20050;-76
2021/09/17 01:29:33;;;;;;;48.70;29.30;;;12.70;99.90;;;;;;5002585;28;20047;-76
2021/09/17 01:32:00;;;;;;;54.72;32.83;;;12.80;99.90;;;;;;4987679;28;20046;-77
2021/09/17 01:34:27;;;;;;;50.85;30.27;;;12.80;99.90;;;;;;4970074;28;20058;-75
2021/09/17 01:36:54;;;;;;;51.13;30.17;;;12.80;99.90;;;;;;4984563;28;20046;-75
2021/09/17 01:39:21;;;;;;;53.28;31.35;;;12.80;99.90;;;;;;4985946;28;20092;-76
2021/09/17 01:41:48;;;;;;;49.92;30.02;;;12.80;99.90;;;;;;4985859;28;20050;-76
2021/09/17 01:44:15;;;;;;;51.42;32.53;;;12.80;99.90;;;;;;4985644;28;20081;-76
2021/09/17 01:46:42;;;;;;;47.90;30.65;;;12.90;99.90;;;;;;4985317;28;20213;-76
2021/09/17 01:49:09;;;;;;;55.55;32.35;;;12.90;99.90;;;;;;4977994;28;20446;-76
2021/09/17 01:51:36;;;;;;;52.88;31.20;;;12.80;99.90;;;;;;4985900;28;20058;-76
2021/09/17 01:54:04;;;;;;;57.83;32.85;;;12.80;99.90;;;;;;4986016;28;20073;-76
2021/09/17 01:56:32;;;;;;;57.40;34.15;;;12.80;99.90;;;;;;4968175;28;20047;-75
2021/09/17 01:58:59;;;;;;;59.80;33.53;;;12.80;99.90;;;;;;4967925;28;20051;-76
2021/09/17 02:01:26;;;;;;;60.63;35.03;;;12.70;99.90;;;;;;4986034;28;20066;-76
2021/09/17 02:03:54;;;;;;;61.03;36.40;;;12.80;99.90;;;;;;4985637;28;20038;-76
2021/09/17 02:06:22;;;;;;;60.92;35.25;;;12.70;99.90;;;;;;4982773;28;20050;-76
2021/09/17 02:08:50;;;;;;;59.92;36.28;;;12.80;99.90;;;;;;4983473;28;20058;-76
2021/09/17 02:11:17;;;;;;;67.82;37.92;;;12.90;99.90;;;;;;4984955;28;20050;-75
2021/09/17 02:13:44;;;;;;;70.60;38.03;;;12.90;99.90;;;;;;4968475;28;20458;-76
2021/09/17 02:16:11;;;;;;;66.18;39.78;;;12.90;99.90;;;;;;4984457;28;20050;-76
2021/09/17 02:18:38;;;;;;;66.72;36.97;;;12.90;99.90;;;;;;4984648;28;20054;-76
2021/09/17 02:21:05;;;;;;;65.60;37.58;;;12.90;99.90;;;;;;4984640;28;20302;-76
2021/09/17 02:23:31;;;;;;;63.83;37.58;;;12.90;99.90;;;;;;4983931;28;20042;-76
2021/09/17 02:25:58;;;;;;;67.75;39.30;;;12.90;99.90;;;;;;4982211;28;20287;-76
2021/09/17 02:28:25;;;;;;;64.60;37.80;;;12.90;99.90;;;;;;4984982;28;20054;-76
2021/09/17 02:30:52;;;;;;;68.90;38.97;;;12.90;99.90;;;;;;4985905;28;20042;-76
2021/09/17 02:33:18;;;;;;;67.07;38.38;;;12.90;99.90;;;;;;4985500;28;20393;-76
2021/09/17 02:35:45;;;;;;;66.63;40.47;;;12.90;99.90;;;;;;4967415;28;20050;-76
2021/09/17 02:38:12;;;;;;;75.00;41.83;;;12.90;99.90;;;;;;4983190;28;20051;-75
2021/09/17 02:40:39;;;;;;;75.70;41.83;;;12.90;99.90;;;;;;4983081;28;20058;-76
2021/09/17 02:43:05;;;;;;;86.60;44.03;;;12.90;99.90;;;;;;4983103;28;20054;-76
2021/09/17 02:45:32;;;;;;;72.55;40.10;;;12.90;99.90;;;;;;4984802;28;20501;-76
2021/09/17 02:47:59;;;;;;;81.50;45.05;;;12.90;99.90;;;;;;4985563;28;20104;-76
2021/09/17 02:50:26;;;;;;;88.13;46.90;;;12.90;99.90;;;;;;4984396;28;20073;-77
2021/09/17 02:52:52;;;;;;;78.75;44.72;;;13.00;99.90;;;;;;4993455;28;20049;-77
2021/09/17 02:55:20;;;;;;;77.07;44.88;;;13.00;99.90;;;;;;4985108;28;20137;-76
2021/09/17 02:57:46;;;;;;;84.35;44.92;;;13.00;99.90;;;;;;4984903;28;20462;-76
2021/09/17 03:00:14;;;;;;;87.85;47.55;;;13.00;99.90;;;;;;4986946;28;20100;-76
2021/09/17 03:02:44;;;;;;;91.43;46.72;;;13.00;99.90;;;;;;4983744;28;20133;-76
2021/09/17 03:05:11;;;;;;;83.25;46.42;;;13.00;99.90;;;;;;4983619;28;20046;-76
2021/09/17 03:07:38;;;;;;;81.00;45.92;;;13.10;99.90;;;;;;4982989;28;20079;-76
2021/09/17 03:10:05;;;;;;;87.07;49.03;;;13.00;99.90;;;;;;4990016;28;20297;-76
2021/09/17 03:12:33;;;;;;;80.35;46.38;;;13.00;99.90;;;;;;4984859;28;20093;-76
2021/09/17 03:15:00;;;;;;;86.85;47.90;;;13.00;99.90;;;;;;4984548;28;20337;-77
2021/09/17 03:17:27;;;;;;;90.97;50.08;;;13.10;99.90;;;;;;4984893;28;20141;-76
2021/09/17 03:19:54;;;;;;;108.45;54.97;;;13.10;99.90;;;;;;4982649;28;20715;-76
2021/09/17 03:22:20;;;;;;;101.80;56.80;;;13.10;99.90;;;;;;4982999;28;20105;-76
2021/09/17 03:24:47;;;;;;;114.75;60.88;;;13.10;99.90;;;;;;4983846;28;20058;-76
2021/09/17 03:27:14;;;;;;;114.43;63.20;;;13.00;99.90;;;;;;4988611;28;20049;-76
2021/09/17 03:29:41;;;;;;;116.43;61.35;;;13.00;99.90;;;;;;4983978;28;20497;-76
2021/09/17 03:32:08;;;;;;;116.10;65.00;;;13.00;99.90;;;;;;4982759;28;20046;-76
2021/09/17 03:34:35;;;;;;;105.85;60.40;;;13.00;99.90;;;;;;4983784;28;20112;-76
2021/09/17 03:37:03;;;;;;;113.07;65.55;;;13.00;99.90;;;;;;4982874;28;20136;-75
2021/09/17 03:39:29;;;;;;;111.03;64.20;;;13.00;99.90;;;;;;4982606;28;20054;-75
2021/09/17 03:41:56;;;;;;;110.88;60.95;;;13.00;99.90;;;;;;4982125;28;20335;-76
2021/09/17 03:44:23;;;;;;;114.82;63.28;;;13.00;99.90;;;;;;4984209;28;20264;-77
2021/09/17 03:46:50;;;;;;;94.85;56.80;;;13.00;99.90;;;;;;4984252;28;20062;-76
2021/09/17 03:49:17;;;;;;;105.75;58.05;;;13.00;99.90;;;;;;4974397;28;20054;-76
2021/09/17 03:51:43;;;;;;;104.75;58.60;;;13.00;99.90;;;;;;4987401;28;20341;-76
2021/09/17 03:54:10;;;;;;;99.43;56.30;;;13.00;99.90;;;;;;4981476;28;20568;-76
2021/09/17 03:56:37;;;;;;;93.25;56.10;;;13.00;99.90;;;;;;4969067;28;20078;-75
2021/09/17 03:59:03;;;;;;;100.28;56.20;;;13.00;99.90;;;;;;4986684;28;20082;-76
2021/09/17 04:01:30;;;;;;;97.93;55.47;;;13.00;99.90;;;;;;4987414;28;20054;-77
2021/09/17 04:03:57;;;;;;;96.70;55.78;;;13.00;99.90;;;;;;4985779;28;20054;-76
2021/09/17 04:06:24;;;;;;;95.88;54.78;;;13.00;99.90;;;;;;4986124;28;20046;-77
2021/09/17 04:08:51;;;;;;;97.15;56.05;;;13.00;99.90;;;;;;4985134;28;20881;-76
2021/09/17 04:11:18;;;;;;;102.28;55.75;;;13.00;99.90;;;;;;4987385;28;20042;-76
2021/09/17 04:13:44;;;;;;;97.22;57.13;;;13.10;99.90;;;;;;4986492;28;20096;-76
2021/09/17 04:16:11;;;;;;;98.32;56.10;;;13.00;99.90;;;;;;4986532;28;20054;-76
2021/09/17 04:18:38;;;;;;;90.82;52.38;;;13.10;99.90;;;;;;4986980;28;20548;-77
2021/09/17 04:21:04;;;;;;;93.55;55.08;;;13.10;99.90;;;;;;4987577;28;20058;-77
2021/09/17 04:23:31;;;;;;;94.32;52.65;;;13.10;99.90;;;;;;4986776;28;20116;-76
2021/09/17 04:25:58;;;;;;;89.45;52.45;;;13.10;99.90;;;;;;4969333;28;20042;-76
2021/09/17 04:28:25;;;;;;;95.80;52.97;;;13.00;99.90;;;;;;4987666;28;20112;-76
2021/09/17 04:30:52;;;;;;;91.70;53.03;;;13.10;99.90;;;;;;4987195;28;20042;-75
2021/09/17 04:33:18;;;;;;;99.45;55.15;;;13.00;99.90;;;;;;4986559;28;20065;-76
2021/09/17 04:35:45;;;;;;;92.15;53.38;;;13.00;99.90;;;;;;4984705;28;20041;-75
2021/09/17 04:38:14;;;;;;;90.60;53.80;;;13.00;99.90;;;;;;4973555;28;20491;-76
2021/09/17 04:40:42;;;;;;;101.22;54.65;;;13.00;99.90;;;;;;5005506;28;20070;-76
2021/09/17 04:43:10;;;;;;;102.75;55.13;;;13.00;99.90;;;;;;4986961;28;20474;-76
2021/09/17 04:45:37;;;;;;;99.30;55.50;;;13.00;99.90;;;;;;4980317;28;20058;-76
2021/09/17 04:48:15;;;;;;;97.13;54.67;;;13.00;99.90;;;;;;4981324;28;20506;-75
2021/09/17 04:50:43;;;;;;;101.97;56.25;;;13.00;99.90;;;;;;4980182;28;20509;-77
2021/09/17 04:53:10;;;;;;;97.45;56.08;;;13.00;99.90;;;;;;4985487;28;20089;-78
2021/09/17 04:55:37;;;;;;;94.13;54.10;;;13.00;99.90;;;;;;4988052;28;20050;-77
2021/09/17 04:58:06;;;;;;;95.78;55.55;;;13.10;99.90;;;;;;4996077;28;20058;-78
2021/09/17 05:00:35;;;;;;;102.78;58.50;;;13.10;99.90;;;;;;4990182;28;20096;-76
2021/09/17 05:03:02;;;;;;;97.05;56.33;;;13.20;99.90;;;;;;4969172;28;20125;-76
2021/09/17 05:05:29;;;;;;;97.05;56.72;;;13.20;99.90;;;;;;4985515;28;20042;-76
2021/09/17 05:07:55;;;;;;;100.45;58.47;;;13.20;99.90;;;;;;4983820;28;20462;-78
2021/09/17 05:10:22;;;;;;;92.70;56.58;;;13.30;99.90;;;;;;4982649;28;20046;-78
2021/09/17 05:12:49;;;;;;;93.88;55.53;;;13.30;99.90;;;;;;4984728;28;20470;-76
2021/09/17 05:15:17;;;;;;;106.53;60.90;;;13.30;99.90;;;;;;4985526;28;20063;-79
2021/09/17 05:17:44;;;;;;;105.03;59.30;;;13.30;99.90;;;;;;4983876;28;20087;-76
2021/09/17 05:20:11;;;;;;;98.80;58.78;;;13.40;99.90;;;;;;4984119;28;20101;-76
2021/09/17 05:22:38;;;;;;;96.45;56.40;;;13.40;99.90;;;;;;4978322;28;20054;-73
2021/09/17 05:25:05;;;;;;;100.85;56.53;;;13.30;99.90;;;;;;4982079;28;20053;-76
2021/09/17 05:27:32;;;;;;;92.03;56.38;;;13.30;99.90;;;;;;4982901;28;20224;-76
2021/09/17 05:29:59;;;;;;;99.72;59.42;;;13.40;99.90;;;;;;4984073;28;20073;-76
2021/09/17 05:32:26;;;;;;;101.28;62.22;;;13.40;99.90;;;;;;4983533;28;20511;-76
2021/09/17 05:34:53;;;;;;;100.45;58.58;;;13.40;99.90;;;;;;4983956;28;20507;-78
2021/09/17 05:37:20;;;;;;;103.75;57.03;;;13.40;99.90;;;;;;4983174;28;20458;-76
2021/09/17 05:39:47;;;;;;;100.47;58.08;;;13.40;99.90;;;;;;4985146;28;20113;-76
2021/09/17 05:42:14;;;;;;;96.82;57.75;;;13.30;99.90;;;;;;4983615;28;20136;-78
2021/09/17 05:44:40;;;;;;;110.30;61.75;;;13.30;99.90;;;;;;4986635;28;20077;-76
2021/09/17 05:47:07;;;;;;;109.20;60.60;;;13.30;99.90;;;;;;4986503;28;20368;-76
2021/09/17 05:49:34;;;;;;;102.53;58.88;;;13.30;99.90;;;;;;4983893;28;20046;-75
2021/09/17 05:52:00;;;;;;;102.55;58.55;;;13.30;99.90;;;;;;4966331;28;20058;-76
2021/09/17 05:54:29;;;;;;;105.22;60.75;;;13.40;99.90;;;;;;4986346;28;20124;-76
2021/09/17 05:56:55;;;;;;;106.72;59.58;;;13.40;99.90;;;;;;4967366;28;20241;-76
2021/09/17 05:59:22;;;;;;;119.53;63.10;;;13.50;99.90;;;;;;4985634;28;20061;-76
2021/09/17 06:01:49;;;;;;;103.97;58.88;;;13.50;99.90;;;;;;4965694;28;20112;-76
2021/09/17 06:04:16;;;;;;;107.40;58.13;;;13.50;99.90;;;;;;4984383;28;20569;-77
2021/09/17 06:06:44;;;;;;;107.75;60.97;;;13.50;99.90;;;;;;4984161;28;20054;-76
2021/09/17 06:09:11;;;;;;;110.45;60.60;;;13.50;99.90;;;;;;4979751;28;20035;-77
2021/09/17 06:11:38;;;;;;;98.97;59.70;;;13.60;99.90;;;;;;4985859;28;20137;-77
2021/09/17 06:14:06;;;;;;;111.05;61.47;;;13.70;99.90;;;;;;4980472;28;20057;-76
2021/09/17 06:16:34;;;;;;;104.70;61.10;;;13.70;99.90;;;;;;4985058;28;20054;-75
2021/09/17 06:19:02;;;;;;;108.30;60.30;;;13.70;99.90;;;;;;4985304;28;20042;-76
2021/09/17 06:21:31;;;;;;;100.95;59.40;;;13.60;99.90;;;;;;4991909;28;20046;-76
2021/09/17 06:23:58;;;;;;;107.22;59.65;;;13.60;99.90;;;;;;4983465;28;20454;-77
2021/09/17 06:26:25;;;;;;;99.00;59.47;;;13.60;99.90;;;;;;4967378;28;20061;-76
2021/09/17 06:28:51;;;;;;;102.63;59.17;;;13.70;99.90;;;;;;4984328;28;20126;-76
2021/09/17 06:31:18;;;;;;;106.97;61.13;;;13.80;99.90;;;;;;4983183;28;20046;-77
2021/09/17 06:33:45;;;;;;;110.90;62.80;;;13.80;99.90;;;;;;4984095;28;20124;-77
2021/09/17 06:36:11;;;;;;;113.35;63.60;;;13.80;99.90;;;;;;4984920;28;20073;-76
2021/09/17 06:38:38;;;;;;;109.35;60.22;;;13.80;99.90;;;;;;4982562;28;20574;-76
2021/09/17 06:41:05;;;;;;;110.75;63.15;;;13.80;99.90;;;;;;4982814;28;20451;-76
2021/09/17 06:43:32;;;;;;;105.20;63.00;;;13.90;99.90;;;;;;4966346;28;20046;-76
2021/09/17 06:46:02;;;;;;;115.50;66.63;;;13.90;99.90;;;;;;4983704;28;20050;-77
2021/09/17 06:48:28;;;;;;;120.40;65.68;;;13.90;99.90;;;;;;4986407;28;20081;-76
2021/09/17 06:50:55;;;;;;;105.07;59.65;;;13.90;99.90;;;;;;4983794;28;20487;-77
2021/09/17 06:53:23;;;;;;;113.32;64.25;;;13.90;99.90;;;;;;4979956;28;20475;-77
2021/09/17 06:55:49;;;;;;;115.30;62.42;;;14.00;99.90;;;;;;4966884;28;20128;-76
2021/09/17 06:58:17;;;;;;;112.78;63.25;;;14.00;99.90;;;;;;5000584;28;20457;-76
2021/09/17 07:00:44;;;;;;;118.68;67.05;;;14.10;99.90;;;;;;4954863;28;20061;-75
2021/09/17 07:03:11;;;;;;;109.35;62.45;;;14.10;99.90;;;;;;4983818;28;20129;-77
2021/09/17 07:05:38;;;;;;;116.57;64.85;;;14.10;99.90;;;;;;4984160;28;20109;-77
2021/09/17 07:08:07;;;;;;;115.90;65.45;;;14.10;99.90;;;;;;4976000;28;20038;-77
2021/09/17 07:10:36;;;;;;;118.10;67.20;;;14.10;99.90;;;;;;4981140;28;20053;-77
2021/09/17 07:13:04;;;;;;;122.88;69.75;;;14.20;99.90;;;;;;4982653;28;20569;-76
2021/09/17 07:15:31;;;;;;;117.90;66.70;;;14.10;99.90;;;;;;4981587;28;20050;-77
2021/09/17 07:17:58;;;;;;;132.95;69.97;;;14.00;99.90;;;;;;4985652;28;20054;-78
2021/09/17 07:20:25;;;;;;;126.60;68.05;;;14.00;99.90;;;;;;4983221;28;20051;-76
2021/09/17 07:22:52;;;;;;;128.70;69.32;;;14.00;99.90;;;;;;4984803;28;20185;-76
2021/09/17 07:25:19;;;;;;;132.50;68.72;;;14.10;99.90;;;;;;4974026;28;20053;-77
2021/09/17 07:27:46;;;;;;;131.50;69.97;;;14.10;99.90;;;;;;4988400;28;20068;-77
2021/09/17 07:30:15;;;;;;;126.82;69.60;;;14.00;99.90;;;;;;5003792;28;20430;-77
2021/09/17 07:32:42;;;;;;;130.98;68.40;;;14.10;99.90;;;;;;4984034;28;20113;-77
2021/09/17 07:35:13;;;;;;;123.90;68.68;;;14.10;99.90;;;;;;4979741;28;20133;-77
2021/09/17 07:37:45;;;;;;;137.48;73.88;;;14.10;99.90;;;;;;4992455;28;20567;-77
2021/09/17 07:40:14;;;;;;;127.97;68.22;;;14.20;99.90;;;;;;4990999;28;20058;-77
2021/09/17 07:42:42;;;;;;;130.15;71.25;;;14.20;99.90;;;;;;4969632;28;20047;-75
2021/09/17 07:45:10;;;;;;;124.65;71.35;;;14.30;99.90;;;;;;4987458;28;20081;-74
2021/09/17 07:47:37;;;;;;;124.90;68.65;;;14.30;99.90;;;;;;4987724;28;20058;-75
2021/09/17 07:50:07;;;;;;;129.93;70.95;;;14.30;99.90;;;;;;4985726;28;20121;-73
2021/09/17 07:52:34;;;;;;;125.22;70.65;;;14.30;99.90;;;;;;5000502;28;20050;-74
2021/09/17 07:55:01;;;;;;;150.43;78.43;;;14.20;99.90;;;;;;4986076;28;20046;-74
2021/09/17 07:57:29;;;;;;;126.05;73.22;;;14.20;99.90;;;;;;4986983;28;20443;-74
2021/09/17 07:59:56;;;;;;;129.30;71.35;;;14.30;99.90;;;;;;4987488;28;20050;-74
2021/09/17 08:02:22;;;;;;;144.00;77.30;;;14.40;99.90;;;;;;4985999;28;20051;-74
2021/09/17 08:04:49;;;;;;;132.13;72.82;;;14.40;99.90;;;;;;4986965;28;20046;-74
2021/09/17 08:07:16;;;;;;;144.38;74.57;;;14.50;99.90;;;;;;4985824;28;20137;-76
2021/09/17 08:09:43;;;;;;;136.48;71.03;;;14.50;99.90;;;;;;4986314;28;20112;-74
2021/09/17 08:12:10;;;;;;;137.02;72.97;;;14.50;99.90;;;;;;4984751;28;20561;-74
2021/09/17 08:14:36;;;;;;;129.45;73.85;;;14.50;99.90;;;;;;4986660;28;20116;-75
2021/09/17 08:17:03;;;;;;;132.48;71.85;;;14.50;99.90;;;;;;4985888;28;20038;-74
2021/09/17 08:19:30;;;;;;;131.63;73.32;;;14.60;99.90;;;;;;4983785;28;20047;-75
2021/09/17 08:21:58;;;;;;;139.38;75.05;;;14.60;99.90;;;;;;5001315;28;20046;-75
2021/09/17 08:24:24;;;;;;;139.40;77.85;;;14.60;99.90;;;;;;4988634;28;20046;-74
2021/09/17 08:26:52;;;;;;;135.15;70.97;;;14.60;99.90;;;;;;4988299;28;20453;-74
2021/09/17 08:29:19;;;;;;;140.20;75.53;;;14.60;99.90;;;;;;4973805;28;20062;-74
2021/09/17 08:31:49;;;;;;;142.15;77.50;;;14.60;99.90;;;;;;4985297;28;20043;-74
2021/09/17 08:34:16;;;;;;;149.98;78.93;;;14.60;99.90;;;;;;4993238;28;20299;-75
2021/09/17 08:36:43;;;;;;;146.40;78.07;;;14.60;99.90;;;;;;4989249;28;20045;-74
2021/09/17 08:39:10;;;;;;;131.27;73.07;;;14.60;99.90;;;;;;4990284;28;20724;-74
2021/09/17 08:41:38;;;;;;;140.82;73.88;;;14.70;99.90;;;;;;4974694;28;20341;-74
2021/09/17 08:44:05;;;;;;;134.50;72.60;;;14.70;99.90;;;;;;4990300;28;20129;-74
2021/09/17 08:46:33;;;;;;;130.77;71.70;;;14.70;99.90;;;;;;4984146;28;20335;-74
2021/09/17 08:49:02;;;;;;;132.38;73.65;;;14.70;99.90;;;;;;4987574;28;20073;-74
2021/09/17 08:51:29;;;;;;;132.77;72.30;;;14.70;99.90;;;;;;4990778;28;20061;-74
2021/09/17 08:53:56;;;;;;;128.77;68.72;;;14.70;99.90;;;;;;4990694;28;20558;-74
2021/09/17 08:56:23;;;;;;;130.52;70.03;;;14.60;99.90;;;;;;4989803;28;20467;-74
2021/09/17 08:58:50;;;;;;;125.07;69.30;;;14.70;99.90;;;;;;4991502;28;20066;-74
2021/09/17 09:01:30;;;;;;;116.75;64.32;;;14.80;99.90;;;;;;4995464;28;20074;-74
2021/09/17 09:04:01;;;;;;;117.10;63.88;;;14.80;99.90;;;;;;4988007;28;20065;-75
2021/09/17 09:06:36;;;;;;;118.15;66.72;;;14.80;99.90;;;;;;4983411;28;20391;-75
2021/09/17 09:09:23;;;;;;;;;;;15.00;99.90;;;;;;4986510;28;20058;-75
2021/09/17 09:11:52;;;;;;;107.35;60.85;;;15.10;99.90;;;;;;4983639;28;19929;-74
2021/09/17 09:14:20;;;;;;;111.15;62.75;;;15.20;99.90;;;;;;4976103;28;20446;-75
2021/09/17 09:16:53;;;;;;;103.38;60.22;;;15.20;99.90;;;;;;4987190;28;20054;-75
2021/09/17 09:19:34;;;;;;;105.88;62.63;;;15.20;99.90;;;;;;4986508;28;20120;-74
2021/09/17 09:22:03;;;;;;;109.18;60.38;;;15.10;99.90;;;;;;4983915;28;20142;-75
2021/09/17 09:24:44;;;;;;;111.72;61.83;;;15.10;99.90;;;;;;4984510;28;20061;-75
2021/09/17 09:27:17;;;;;;;107.45;59.92;;;15.20;99.90;;;;;;4997169;28;20078;-75
2021/09/17 09:29:51;;;;;;;97.18;55.80;;;15.40;99.90;;;;;;4997645;28;20105;-75
2021/09/17 09:32:44;;;;;;;85.18;51.53;;;15.50;99.90;;;;;;4983442;28;20073;-75
2021/09/17 09:35:13;;;;;;;89.05;52.20;;;15.60;99.90;;;;;;4982509;28;20526;-75
2021/09/17 09:37:40;;;;;;;77.50;48.72;;;15.60;99.90;;;;;;4986284;28;20054;-75
2021/09/17 09:40:16;;;;;;;94.05;53.65;;;15.50;99.90;;;;;;4985829;28;20116;-75
2021/09/17 09:42:46;;;;;;;77.68;45.92;;;15.50;99.90;;;;;;4986016;28;20506;-74
2021/09/17 09:45:16;;;;;;;82.57;48.60;;;15.50;99.90;;;;;;4986017;28;20404;-75
2021/09/17 09:47:48;;;;;;;80.50;48.35;;;15.50;99.90;;;;;;4984672;28;20058;-73
2021/09/17 09:50:30;;;;;;;79.40;46.17;;;15.40;99.90;;;;;;4983063;28;20062;-75
2021/09/17 09:53:01;;;;;;;99.88;48.97;;;15.40;99.90;;;;;;4979890;28;20314;-75
2021/09/17 09:55:31;;;;;;;80.07;47.28;;;15.40;99.90;;;;;;4985125;28;20056;-75
2021/09/17 09:57:58;;;;;;;79.80;48.65;;;15.40;99.90;;;;;;4985781;28;20096;-76
2021/09/17 10:00:27;;;;;;;79.22;45.83;;;15.30;99.90;;;;;;4983520;28;20121;-75
2021/09/17 10:02:55;;;;;;;87.93;51.08;;;15.10;99.90;;;;;;4982798;28;20141;-75
2021/09/17 10:05:25;;;;;;;91.03;50.58;;;15.20;99.90;;;;;;4989557;28;20131;-75
2021/09/17 10:07:52;;;;;;;87.82;50.45;;;15.40;99.90;;;;;;4992472;28;20562;-75
2021/09/17 10:10:19;;;;;;;92.82;49.92;;;15.50;99.90;;;;;;4982524;28;20226;-75
2021/09/17 10:12:47;;;;;;;76.10;45.42;;;15.60;99.90;;;;;;4982618;28;20050;-74
2021/09/17 10:15:16;;;;;;;78.05;45.65;;;15.80;99.90;;;;;;4982686;28;20069;-75
2021/09/17 10:17:49;;;;;;;70.82;46.08;;;16.10;99.90;;;;;;4985968;28;20557;-74
2021/09/17 10:20:16;;;;;;;64.25;40.00;;;16.20;99.90;;;;;;4979585;28;20054;-74
2021/09/17 10:22:44;;;;;;;64.03;40.75;;;16.20;99.90;;;;;;4983084;28;20058;-75
2021/09/17 10:25:17;;;;;;;67.97;40.88;;;16.20;99.90;;;;;;4983811;28;20109;-74
2021/09/17 10:28:00;;;;;;;58.00;37.33;;;16.30;99.90;;;;;;4982389;28;20746;-74
2021/09/17 10:30:30;;;;;;;54.05;34.67;;;16.30;99.90;;;;;;4984666;28;20050;-74
2021/09/17 10:32:57;;;;;;;62.47;37.22;;;16.50;99.90;;;;;;4976115;28;20495;-74
2021/09/17 10:35:41;;;;;;;58.70;36.70;;;16.60;99.90;;;;;;4986549;28;20081;-74
2021/09/17 10:38:17;;;;;;;50.70;34.08;;;16.60;99.90;;;;;;4969308;28;20082;-75
2021/09/17 10:40:53;;;;;;;50.20;33.05;;;16.60;99.90;;;;;;4985734;28;20078;-74
2021/09/17 10:43:33;;;;;;;49.22;34.47;;;16.70;99.90;;;;;;4985580;28;20050;-74
2021/09/17 10:46:20;;;;;;;55.50;36.00;;;16.70;99.90;;;;;;5002841;28;20065;-74
2021/09/17 10:48:53;;;;;;;55.70;35.28;;;16.80;99.90;;;;;;4970685;28;20078;-74
2021/09/17 10:51:32;;;;;;;53.75;35.85;;;16.80;99.90;;;;;;4983941;28;20507;-74
2021/09/17 10:54:10;;;;;;;54.20;35.75;;;17.00;99.90;;;;;;4985790;28;20136;-75
2021/09/17 10:56:48;;;;;;;50.95;34.65;;;17.20;99.90;;;;;;4982360;28;20054;-74
2021/09/17 10:59:39;;;;;;;48.88;32.65;;;17.10;99.90;;;;;;4986327;28;20149;-74
2021/09/17 11:02:07;;;;;;;49.85;33.28;;;17.10;99.90;;;;;;4995736;28;20136;-74
2021/09/17 11:04:35;;;;;;;55.53;38.38;;;17.10;99.90;;;;;;4984938;28;20057;-74
2021/09/17 11:07:32;;;;;;;52.42;34.95;;;17.10;99.90;;;;;;4989323;28;20050;-74
2021/09/17 11:09:59;;;;;;;51.90;35.13;;;17.00;99.90;;;;;;4986498;28;20064;-74
2021/09/17 11:12:27;;;;;;;53.67;35.55;;;16.90;99.90;;;;;;4989657;28;20411;-74
2021/09/17 11:15:15;;;;;;;50.47;35.60;;;16.80;99.90;;;;;;4991647;28;20439;-74
2021/09/17 11:17:48;;;;;;;53.95;36.17;;;16.80;99.90;;;;;;4988809;28;20058;-74
2021/09/17 11:20:23;;;;;;;47.25;31.83;;;16.70;99.90;;;;;;4987253;28;20053;-74
2021/09/17 11:23:07;;;;;;;51.40;36.28;;;16.80;99.90;;;;;;4987088;28;20081;-74
2021/09/17 11:25:40;;;;;;;52.15;33.97;;;16.80;99.90;;;;;;4995471;28;20118;-75
2021/09/17 11:28:19;;;;;;;55.42;36.85;;;16.80;99.90;;;;;;4985427;28;20062;-74
2021/09/17 11:30:46;;;;;;;54.38;36.78;;;16.80;99.90;;;;;;4984104;28;20062;-75
2021/09/17 11:33:18;;;;;;;50.80;33.38;;;16.80;99.90;;;;;;4982929;28;20499;-75
2021/09/17 11:35:45;;;;;;;57.72;35.25;;;17.00;99.90;;;;;;4987777;28;20507;-75
2021/09/17 11:38:12;;;;;;;55.22;34.33;;;17.20;99.90;;;;;;4980946;28;20096;-74
2021/09/17 11:40:50;;;;;;;52.05;34.08;;;17.20;99.90;;;;;;5000283;28;20054;-74
2021/09/17 11:43:17;;;;;;;56.70;34.42;;;17.40;99.90;;;;;;4987119;28;20050;-75
2021/09/17 11:45:49;;;;;;;48.63;31.20;;;17.60;99.90;;;;;;4986245;28;20578;-74
2021/09/17 11:48:25;;;;;;;43.78;29.08;;;17.80;99.90;;;;;;4986859;28;20046;-74
2021/09/17 11:50:53;;;;;;;43.35;29.38;;;17.90;99.90;;;;;;4985893;28;20097;-74
2021/09/17 11:53:20;;;;;;;42.03;29.85;;;18.00;99.90;;;;;;4981796;28;20495;-74
2021/09/17 11:55:47;;;;;;;53.08;31.88;;;17.90;99.90;;;;;;4986588;28;20046;-74
2021/09/17 11:58:14;;;;;;;54.35;35.78;;;18.10;99.90;;;;;;4987616;28;20554;-75
2021/09/17 12:00:41;;;;;;;58.10;37.50;;;18.10;99.90;;;;;;4987312;28;20055;-75
2021/09/17 12:03:09;;;;;;;59.40;37.70;;;17.90;99.90;;;;;;5002289;28;20293;-74
2021/09/17 12:05:41;;;;;;;63.60;39.90;;;17.90;99.90;;;;;;4973607;28;20054;-74
2021/09/17 12:08:09;;;;;;;62.33;39.17;;;17.80;99.90;;;;;;4987119;28;20081;-74
2021/09/17 12:10:38;;;;;;;58.00;35.78;;;17.60;99.90;;;;;;4985290;28;20058;-75
2021/09/17 12:13:13;;;;;;;62.50;38.20;;;17.60;99.90;;;;;;4972896;28;20058;-74
2021/09/17 12:15:45;;;;;;;58.38;37.25;;;17.70;99.90;;;;;;4990534;28;20060;-74
2021/09/17 12:18:20;;;;;;;60.15;37.80;;;18.00;99.90;;;;;;4956107;28;20053;-75
2021/09/17 12:20:59;;;;;;;57.95;37.22;;;18.40;99.90;;;;;;4990437;28;20046;-74
2021/09/17 12:23:47;;;;;;;57.97;35.58;;;18.20;99.90;;;;;;4989475;28;20116;-74
2021/09/17 12:26:18;;;;;;;56.08;36.58;;;18.10;99.90;;;;;;4987874;28;20120;-74
2021/09/17 12:28:47;;;;;;;51.95;33.00;;;18.20;99.90;;;;;;4988349;28;20054;-74
2021/09/17 12:31:35;;;;;;;52.17;32.22;;;18.50;99.90;;;;;;5003251;28;20050;-74